Palma De Mallorca Airport

LEPA | PMI

Palma De Mallorca , Balearic-Islands , Spain

Saturday, September 21st, 2019 | 13:42

Weather

LEPA 211130Z 11005KT 070V170 9999 SCT022 28/23 Q1011 TEMPO 3000 TSRA FEW020CB

Charts

No Charts Available

Gates

165 Available

Runways

2 Available

Events

No events for this airport


New event